Kunming, China

10:17 PM CST on February 24, 2017 (GMT +0800)
Wujiaba | | Change Station

Elev 6207 ft 25.02 °N, 102.68 °E | Updated 17 minutes ago

Overcast
Overcast
41 °F
Feels Like 35 °F
N
9
Wind Variable Wind from NNE

Today
High -- | Low -- °F
--% Chance of Precip.
Yesterday
High -- | Low -- °F
Precip. -- in
Pressure 30.15 in
Visibility 1.0 miles
Clouds Scattered Clouds 200 ft
Scattered Clouds 300 ft
Overcast 2000 ft
Windchill 35 °F
Dew Point 41 °F
Humidity 100%
Rainfall 0.00 in
Snow Depth Not available.
7:36 AM 7:08 PM
Waning Crescent, 5% visible
METAR ZPPP 241400Z 02004MPS 1600 R04/1900D R03/1000V1300D BR -SHRA SCT002 SCT003 OVC020 05/05 Q1021 BECMG TL1500 0600 FG
Pressure 30.15 in
Visibility 1.0 miles
Clouds Scattered Clouds 200 ft
Scattered Clouds 300 ft
Overcast 2000 ft
Windchill 35 °F
Dew Point 41 °F
Humidity 100%
Rainfall 0.00 in
Snow Depth Not available.
7:36 AM 7:08 PM
Waning Crescent, 5% visible
METAR ZPPP 241400Z 02004MPS 1600 R04/1900D R03/1000V1300D BR -SHRA SCT002 SCT003 OVC020 05/05 Q1021 BECMG TL1500 0600 FG

Get Your Daily Forecast Email!

Thanks for signing up!

Be on the lookout for a verification email in your inbox.

You'll start receiving the daily forecast at 8 AM.

×

10-Day Weather Forecast

No radar image for this location.
×

Almanac

Astronomy

Feb. 24, 2017 Rise Set
Actual Time
Civil Twilight
Nautical Twilight
Astronomical Twilight
Moon
Length of Visible Light
Length of Day
Tomorrow will be .
, % of the Moon is Illuminated

Today's Extremes

Country Highs Country Lows

Community

WunderPhotos

Upload Photos

1,962,540 photos uploaded!

WunderBlog® & News

Nearby

Air Quality

  Air Quality AQ Index Pollutant
Not available.

Snow Depth

Station Depth Elevation

Earthquake Activity

City Distance Mag. Time & Date
Minimum magnitude displayed is 2.5.

Coastal Water Temperatures

Place Temperature

Stations

Nearby Weather Stations

Station Location Temp. Windchill Dew Point Humidity Wind Precip. Elev Updated Type